Ohio City, Colorado
Current Conditions -  °F | °C
As of 3:11 PM on Thursday 23 Oct 2014 (Local Time) from KMYP Reporting Station
Clear Clear  
Wind Chill: 31°   Ceiling: Unl
Heat Index: 41°   Visibility: 10mi
Dew Point: 30°   Wind: 23mph
Humidity: 65%   Direction: 240°WSW
Pressure: 30.62"   Gusts: 28mph
Location:  38.58°N, 106.58°W
Report Text: KMYP 232111Z AUTO 24020G24KT 10SM CLR 05/M01 A3062 RMK AO2
Loading
Personal Weather Stations






























Interactive Weather Map
Tropical Storm Tracking
New forecast layout! Learn more

10-Day Weather Forecast

Advertisements
Track Severe Weather on mobile